createdAt,value
2023-04-07T00:00:28.481Z,14.47
2023-04-07T00:02:58.906Z,14.90
2023-04-07T00:05:28.401Z,15.20
2023-04-07T00:07:58.009Z,14.37
2023-04-07T00:10:29.049Z,16.80
2023-04-07T00:12:58.669Z,14.73
2023-04-07T00:15:28.372Z,13.83
2023-04-07T00:17:58.102Z,15.13
2023-04-07T00:20:27.798Z,15.70
2023-04-07T00:22:57.277Z,15.50
2023-04-07T00:25:28.541Z,14.17
2023-04-07T00:27:58.251Z,14.07
2023-04-07T00:30:28.062Z,14.63
2023-04-07T00:32:57.667Z,15.03
2023-04-07T00:35:27.292Z,12.83
2023-04-07T00:37:57.612Z,14.00
2023-04-07T00:40:29.265Z,14.40
2023-04-07T00:42:58.996Z,15.70
2023-04-07T00:45:28.661Z,15.40
2023-04-07T00:47:59.838Z,15.40
2023-04-07T00:50:29.423Z,16.03
2023-04-07T00:52:58.972Z,15.33
2023-04-07T00:55:30.060Z,16.00
2023-04-07T00:57:59.789Z,15.00
2023-04-07T01:00:30.006Z,15.40
2023-04-07T01:03:04.526Z,15.33
2023-04-07T01:05:44.254Z,16.07
2023-04-07T01:08:19.008Z,14.77
2023-04-07T01:10:55.247Z,17.27
2023-04-07T01:13:29.688Z,15.47
2023-04-07T01:16:02.920Z,16.10
2023-04-07T01:18:35.858Z,16.63
2023-04-07T01:21:08.520Z,14.97
2023-04-07T01:24:10.509Z,16.27
2023-04-07T01:26:43.001Z,16.70
2023-04-07T01:29:37.358Z,18.83
2023-04-07T01:32:09.708Z,16.90
2023-04-07T01:34:40.553Z,17.67
2023-04-07T01:37:10.840Z,19.40
2023-04-07T01:39:41.912Z,18.20
2023-04-07T01:42:12.784Z,17.53
2023-04-07T01:44:44.728Z,16.90
2023-04-07T01:47:14.672Z,17.60
2023-04-07T01:49:45.711Z,17.07
2023-04-07T01:52:16.202Z,17.87
2023-04-07T01:54:45.799Z,17.30
2023-04-07T01:57:15.155Z,16.17
2023-04-07T01:59:46.156Z,17.13
2023-04-07T02:02:15.530Z,18.53
2023-04-07T02:04:55.402Z,18.20
2023-04-07T02:07:31.867Z,19.00
2023-04-07T02:10:04.458Z,18.33
2023-04-07T02:12:37.129Z,18.00
2023-04-07T02:15:11.848Z,18.30
2023-04-07T02:17:44.194Z,19.30
2023-04-07T02:20:15.857Z,17.40
2023-04-07T02:22:46.499Z,18.00
2023-04-07T02:25:26.576Z,19.80
2023-04-07T02:27:57.412Z,18.90
2023-04-07T02:30:29.779Z,18.90
2023-04-07T02:32:59.412Z,18.80
2023-04-07T02:35:29.078Z,16.90
2023-04-07T02:37:58.611Z,19.37
2023-04-07T02:40:28.400Z,18.27
2023-04-07T02:42:57.817Z,18.00
2023-04-07T02:45:29.472Z,19.50
2023-04-07T02:47:59.357Z,18.73
2023-04-07T02:50:29.809Z,19.10
2023-04-07T02:52:59.304Z,18.77
2023-04-07T02:55:28.897Z,18.30
2023-04-07T02:57:58.403Z,17.60
2023-04-07T03:00:29.763Z,18.00
2023-04-07T03:02:59.568Z,17.50
2023-04-07T03:05:29.286Z,16.60
2023-04-07T03:07:58.889Z,17.10
2023-04-07T03:10:28.297Z,16.30
2023-04-07T03:12:59.139Z,17.20
2023-04-07T03:15:30.377Z,17.13
2023-04-07T03:18:00.180Z,17.73
2023-04-07T03:20:29.797Z,17.10
2023-04-07T03:22:59.279Z,16.53
2023-04-07T03:25:28.785Z,16.53
2023-04-07T03:27:58.204Z,17.27
2023-04-07T03:30:29.635Z,16.23
2023-04-07T03:32:59.069Z,17.60
2023-04-07T03:35:28.644Z,16.83
2023-04-07T03:37:57.965Z,16.40
2023-04-07T03:40:28.396Z,16.83
2023-04-07T03:42:57.794Z,17.57
2023-04-07T03:45:29.647Z,17.50
2023-04-07T03:47:59.190Z,17.77
2023-04-07T03:50:28.647Z,18.80
2023-04-07T03:52:58.161Z,18.87
2023-04-07T03:55:27.556Z,20.17
2023-04-07T03:57:57.058Z,21.10
2023-04-07T04:00:27.304Z,21.47
2023-04-07T04:02:58.586Z,22.40
2023-04-07T04:05:28.054Z,21.70
2023-04-07T04:07:57.744Z,22.20
2023-04-07T04:10:27.888Z,23.57
2023-04-07T04:13:01.092Z,20.87
2023-04-07T04:15:30.448Z,23.40
2023-04-07T04:18:01.831Z,22.03
2023-04-07T04:20:31.529Z,23.43
2023-04-07T04:23:00.919Z,21.37
2023-04-07T04:25:30.428Z,19.93
2023-04-07T04:27:59.915Z,18.77
2023-04-07T04:30:29.541Z,18.13
2023-04-07T04:33:00.490Z,16.67
2023-04-07T04:35:30.210Z,16.77
2023-04-07T04:37:59.882Z,16.83
2023-04-07T04:40:29.505Z,15.77
2023-04-07T04:42:59.228Z,14.70
2023-04-07T04:45:28.954Z,13.87
2023-04-07T04:47:58.575Z,14.97
2023-04-07T04:50:29.890Z,14.33
2023-04-07T04:52:59.487Z,14.60
2023-04-07T04:55:28.807Z,14.90
2023-04-07T04:57:58.693Z,17.40
2023-04-07T05:00:28.503Z,18.13
2023-04-07T05:02:58.324Z,20.10
2023-04-07T05:05:29.676Z,20.80
2023-04-07T05:07:59.280Z,19.87
2023-04-07T05:10:28.876Z,19.60
2023-04-07T05:12:58.690Z,15.67
2023-04-07T05:15:28.403Z,17.17
2023-04-07T05:17:58.069Z,14.07
2023-04-07T05:20:29.149Z,13.90
2023-04-07T05:22:58.549Z,13.90
2023-04-07T05:25:28.039Z,14.80
2023-04-07T05:27:57.876Z,14.20
2023-04-07T05:30:28.096Z,14.97
2023-04-07T05:32:57.417Z,13.43
2023-04-07T05:35:28.633Z,14.93
2023-04-07T05:37:58.359Z,14.23
2023-04-07T05:40:27.751Z,15.70
2023-04-07T05:42:57.459Z,18.27
2023-04-07T05:45:26.787Z,15.90
2023-04-07T05:47:56.096Z,14.57
2023-04-07T05:50:25.550Z,12.47
2023-04-07T05:52:56.796Z,15.27
2023-04-07T05:55:27.027Z,14.87
2023-04-07T05:57:58.688Z,15.43
2023-04-07T06:00:28.388Z,16.00
2023-04-07T06:02:59.050Z,16.40
2023-04-07T06:05:28.856Z,17.23
2023-04-07T06:08:00.194Z,17.47
2023-04-07T06:10:29.829Z,15.60
2023-04-07T06:13:00.521Z,16.20
2023-04-07T06:15:30.442Z,15.60
2023-04-07T06:17:59.892Z,15.00
2023-04-07T06:20:30.075Z,16.43
2023-04-07T06:23:01.120Z,17.40
2023-04-07T06:25:30.915Z,21.40
2023-04-07T06:28:00.426Z,16.50
2023-04-07T06:30:30.285Z,20.50
2023-04-07T06:33:00.005Z,19.73
2023-04-07T06:35:29.652Z,16.47
2023-04-07T06:38:01.004Z,14.97
2023-04-07T06:40:30.513Z,16.97
2023-04-07T06:42:59.802Z,14.10
2023-04-07T06:45:29.299Z,16.90
2023-04-07T06:47:58.726Z,14.00
2023-04-07T06:50:28.228Z,16.10
2023-04-07T06:52:57.925Z,17.70
2023-04-07T06:55:29.076Z,15.37
2023-04-07T06:57:58.911Z,14.50
2023-04-07T07:00:30.739Z,16.03
2023-04-07T07:03:00.944Z,14.50
2023-04-07T07:05:30.569Z,14.70
2023-04-07T07:08:00.904Z,16.10
2023-04-07T07:10:32.536Z,15.50
2023-04-07T07:13:01.871Z,15.10
2023-04-07T07:15:31.277Z,15.17
2023-04-07T07:18:00.844Z,15.13
2023-04-07T07:20:31.487Z,13.67
2023-04-07T07:23:00.802Z,14.10
2023-04-07T07:25:32.877Z,16.37
2023-04-07T07:28:02.361Z,15.00
2023-04-07T07:30:32.583Z,15.47
2023-04-07T07:33:02.846Z,13.67
2023-04-07T07:35:33.847Z,15.97
2023-04-07T07:38:03.924Z,15.20
2023-04-07T07:40:35.288Z,15.23
2023-04-07T07:43:08.303Z,16.20
2023-04-07T07:45:37.795Z,13.90
2023-04-07T07:48:08.558Z,13.67
2023-04-07T07:50:38.136Z,14.00
2023-04-07T07:53:07.838Z,15.40
2023-04-07T07:55:38.997Z,20.80
2023-04-07T07:58:08.807Z,14.13
2023-04-07T08:00:38.298Z,15.40
2023-04-07T08:03:07.716Z,14.47
2023-04-07T08:05:37.318Z,14.23
2023-04-07T08:08:07.245Z,15.87
2023-04-07T08:10:38.576Z,14.93
2023-04-07T08:13:08.387Z,15.27
2023-04-07T08:15:38.518Z,14.50
2023-04-07T08:18:08.485Z,15.57
2023-04-07T08:20:38.770Z,14.70
2023-04-07T08:23:08.452Z,15.10
2023-04-07T08:25:42.057Z,14.70
2023-04-07T08:28:11.776Z,12.83
2023-04-07T08:30:41.471Z,18.90
2023-04-07T08:33:11.196Z,16.20
2023-04-07T08:35:40.696Z,17.73
2023-04-07T08:38:10.620Z,16.93
2023-04-07T08:40:43.177Z,15.73
2023-04-07T08:43:15.754Z,15.50
2023-04-07T08:45:47.123Z,18.43
2023-04-07T08:48:19.794Z,19.10
2023-04-07T08:50:54.214Z,12.20
2023-04-07T08:53:30.151Z,14.83
2023-04-07T08:56:02.848Z,16.07
2023-04-07T08:58:33.274Z,15.50
2023-04-07T09:01:03.607Z,13.87
2023-04-07T09:03:34.810Z,13.10
2023-04-07T09:06:04.753Z,15.03
2023-04-07T09:08:34.052Z,12.70
2023-04-07T09:11:05.818Z,13.50
2023-04-07T09:13:35.316Z,15.10
2023-04-07T09:16:07.648Z,12.90
2023-04-07T09:18:37.293Z,12.67
2023-04-07T09:21:08.531Z,12.90
2023-04-07T09:23:39.999Z,13.80
2023-04-07T09:26:26.213Z,13.20
2023-04-07T09:28:57.139Z,12.43
2023-04-07T09:31:46.037Z,12.50
2023-04-07T09:34:27.472Z,12.17
2023-04-07T09:36:57.424Z,13.27
2023-04-07T09:39:27.490Z,16.03
2023-04-07T09:41:59.244Z,15.30
2023-04-07T09:44:28.888Z,14.83
2023-04-07T09:47:00.111Z,10.87
2023-04-07T09:49:29.609Z,12.37
2023-04-07T09:52:01.074Z,11.67
2023-04-07T09:54:38.254Z,12.17
2023-04-07T09:57:11.550Z,11.50
2023-04-07T09:59:43.092Z,12.37
2023-04-07T10:02:13.454Z,12.90
2023-04-07T10:04:43.034Z,11.83
2023-04-07T10:07:12.837Z,10.97
2023-04-07T10:09:42.358Z,11.10
2023-04-07T10:12:14.714Z,12.20
2023-04-07T10:14:47.401Z,11.70
2023-04-07T10:17:20.075Z,11.47
2023-04-07T10:19:51.624Z,11.80
2023-04-07T10:22:22.394Z,10.60
2023-04-07T10:24:59.137Z,14.40
2023-04-07T10:27:36.015Z,12.03
2023-04-07T10:30:09.515Z,11.57
2023-04-07T10:32:49.824Z,11.70
2023-04-07T10:35:20.532Z,12.37
2023-04-07T10:38:14.280Z,12.53
2023-04-07T10:40:45.308Z,12.77
2023-04-07T10:43:40.213Z,12.40
2023-04-07T10:46:10.571Z,11.13
2023-04-07T10:48:40.255Z,12.83
2023-04-07T10:51:18.556Z,12.83
2023-04-07T10:54:29.038Z,11.63
2023-04-07T10:57:16.648Z,12.93
2023-04-07T11:00:24.281Z,12.27
2023-04-07T11:02:55.325Z,12.37
2023-04-07T11:05:25.448Z,12.10
2023-04-07T11:08:03.225Z,12.70
2023-04-07T11:10:32.718Z,11.60
2023-04-07T11:13:11.750Z,13.80
2023-04-07T11:15:42.721Z,14.20
2023-04-07T11:18:17.843Z,11.73
2023-04-07T11:20:53.176Z,14.47
2023-04-07T11:23:24.714Z,12.63
2023-04-07T11:25:56.572Z,12.30
2023-04-07T11:28:26.602Z,11.20
2023-04-07T11:31:00.748Z,11.07
2023-04-07T11:33:35.641Z,13.27
2023-04-07T11:36:05.918Z,13.43
2023-04-07T11:38:39.556Z,12.50
2023-04-07T11:41:17.060Z,21.57
2023-04-07T11:43:47.065Z,26.23
2023-04-07T11:46:19.795Z,14.07
2023-04-07T11:48:49.979Z,20.43
2023-04-07T11:51:20.625Z,17.87
2023-04-07T11:53:50.567Z,17.03
2023-04-07T11:56:21.259Z,18.80
2023-04-07T11:58:51.360Z,13.93
2023-04-07T12:01:25.500Z,11.50
2023-04-07T12:04:00.628Z,18.43
2023-04-07T12:06:35.502Z,13.20
2023-04-07T12:09:05.478Z,13.40
2023-04-07T12:11:36.539Z,15.77
2023-04-07T12:14:07.237Z,13.47
2023-04-07T12:16:43.429Z,14.80
2023-04-07T12:19:13.018Z,13.10
2023-04-07T12:21:42.620Z,13.57
2023-04-07T12:24:12.338Z,13.20
2023-04-07T12:26:42.459Z,11.47
2023-04-07T12:29:11.940Z,12.00
2023-04-07T12:31:43.255Z,12.90
2023-04-07T12:34:12.606Z,12.27
2023-04-07T12:36:42.626Z,12.73
2023-04-07T12:39:12.210Z,12.83
2023-04-07T12:41:42.664Z,12.33
2023-04-07T12:44:12.144Z,13.40
2023-04-07T12:46:45.960Z,13.17
2023-04-07T12:49:15.476Z,12.60
2023-04-07T12:51:45.200Z,12.67
2023-04-07T12:54:16.647Z,12.70
2023-04-07T12:56:46.447Z,12.80
2023-04-07T12:59:16.665Z,13.37
2023-04-07T13:01:50.640Z,12.93
2023-04-07T13:04:21.057Z,14.40
2023-04-07T13:06:50.810Z,13.67
2023-04-07T13:09:20.524Z,15.37
2023-04-07T13:11:50.324Z,16.20
2023-04-07T13:14:20.234Z,13.47
2023-04-07T13:16:51.724Z,13.50
2023-04-07T13:19:21.392Z,12.60
2023-04-07T13:21:51.153Z,14.60
2023-04-07T13:24:22.454Z,14.00
2023-04-07T13:26:52.263Z,12.30
2023-04-07T13:29:22.181Z,12.30
2023-04-07T13:31:53.627Z,12.77
2023-04-07T13:34:23.334Z,11.67
2023-04-07T13:36:53.040Z,12.70
2023-04-07T13:39:22.762Z,12.90
2023-04-07T13:41:52.570Z,12.07
2023-04-07T13:44:22.684Z,13.00
2023-04-07T13:46:54.579Z,10.37
2023-04-07T13:49:24.270Z,16.57
2023-04-07T13:51:53.878Z,13.70
2023-04-07T13:54:24.456Z,12.50
2023-04-07T13:56:54.415Z,12.30
2023-04-07T13:59:24.128Z,12.30
2023-04-07T14:01:55.526Z,13.10
2023-04-07T14:04:25.465Z,14.50
2023-04-07T14:06:55.502Z,13.20
2023-04-07T14:09:25.316Z,16.63
2023-04-07T14:11:55.642Z,20.63
2023-04-07T14:14:25.765Z,16.00
2023-04-07T14:16:58.308Z,16.13
2023-04-07T14:19:28.053Z,18.50
2023-04-07T14:21:58.165Z,17.20
2023-04-07T14:24:28.080Z,18.00
2023-04-07T14:26:57.575Z,17.63
2023-04-07T14:29:27.192Z,18.50
2023-04-07T14:31:58.534Z,20.40
2023-04-07T14:34:28.254Z,18.67
2023-04-07T14:36:59.384Z,19.10
2023-04-07T14:39:29.707Z,14.03
2023-04-07T14:41:59.218Z,19.10
2023-04-07T14:44:29.630Z,18.57
2023-04-07T14:47:01.320Z,19.40
2023-04-07T14:49:30.793Z,16.60
2023-04-07T14:52:00.396Z,17.10
2023-04-07T14:54:30.175Z,14.97
2023-04-07T14:56:59.638Z,20.60
2023-04-07T14:59:29.332Z,16.60
2023-04-07T15:02:00.712Z,15.53
2023-04-07T15:04:30.368Z,15.00
2023-04-07T15:06:59.781Z,14.70
2023-04-07T15:09:29.297Z,16.23
2023-04-07T15:12:00.885Z,14.90
2023-04-07T15:14:30.872Z,16.43
2023-04-07T15:17:02.103Z,14.70
2023-04-07T15:19:31.828Z,13.53
2023-04-07T15:22:01.321Z,14.37
2023-04-07T15:24:31.150Z,17.37
2023-04-07T15:27:00.665Z,16.40
2023-04-07T15:29:30.239Z,17.80
2023-04-07T15:32:01.218Z,14.10
2023-04-07T15:34:30.700Z,14.40
2023-04-07T15:37:02.145Z,14.57
2023-04-07T15:39:33.586Z,16.00
2023-04-07T15:42:03.296Z,14.63
2023-04-07T15:44:40.133Z,12.40
2023-04-07T15:47:11.834Z,14.83
2023-04-07T15:49:42.777Z,13.57
2023-04-07T15:52:14.231Z,12.47
2023-04-07T15:54:43.925Z,13.30
2023-04-07T15:57:13.740Z,12.07
2023-04-07T15:59:43.352Z,12.60
2023-04-07T16:02:14.653Z,13.10
2023-04-07T16:04:45.120Z,15.50
2023-04-07T16:07:14.523Z,25.73
2023-04-07T16:09:44.427Z,16.80
2023-04-07T16:12:14.139Z,18.23
2023-04-07T16:14:43.775Z,17.10
2023-04-07T16:17:14.891Z,11.97
2023-04-07T16:19:44.793Z,12.53
2023-04-07T16:22:14.001Z,12.70
2023-04-07T16:24:43.623Z,13.20
2023-04-07T16:27:13.208Z,13.10
2023-04-07T16:29:42.741Z,13.73
2023-04-07T16:32:12.277Z,13.63
2023-04-07T16:34:43.762Z,12.80
2023-04-07T16:37:13.387Z,14.50
2023-04-07T16:39:43.198Z,14.13
2023-04-07T16:42:12.799Z,14.13
2023-04-07T16:44:42.205Z,14.03
2023-04-07T16:47:11.824Z,13.10
2023-04-07T16:49:42.973Z,12.93
2023-04-07T16:52:12.773Z,14.50
2023-04-07T16:54:42.269Z,15.93
2023-04-07T16:57:12.611Z,13.80
2023-04-07T16:59:42.202Z,14.30
2023-04-07T17:02:13.434Z,14.57
2023-04-07T17:04:45.829Z,14.03
2023-04-07T17:07:15.424Z,15.13
2023-04-07T17:09:45.051Z,13.67
2023-04-07T17:12:15.253Z,12.77
2023-04-07T17:14:44.644Z,13.23
2023-04-07T17:17:14.146Z,14.37
2023-04-07T17:19:45.496Z,12.20
2023-04-07T17:22:15.121Z,13.20
2023-04-07T17:24:44.918Z,13.77
2023-04-07T17:27:14.524Z,12.77
2023-04-07T17:29:44.142Z,14.07
2023-04-07T17:32:13.930Z,13.00
2023-04-07T17:34:45.187Z,14.43
2023-04-07T17:37:14.804Z,14.23
2023-04-07T17:39:44.503Z,13.40
2023-04-07T17:42:14.002Z,12.87
2023-04-07T17:44:43.509Z,17.60
2023-04-07T17:47:13.140Z,18.73
2023-04-07T17:49:44.465Z,15.03
2023-04-07T17:52:14.601Z,13.83
2023-04-07T17:54:44.418Z,12.73
2023-04-07T17:57:16.368Z,17.07
2023-04-07T17:59:46.112Z,15.03
2023-04-07T18:02:15.601Z,15.17
2023-04-07T18:04:47.571Z,16.00
2023-04-07T18:07:18.295Z,16.30
2023-04-07T18:09:48.004Z,15.67
2023-04-07T18:12:19.987Z,15.50
2023-04-07T18:14:49.770Z,15.23
2023-04-07T18:17:19.482Z,14.90
2023-04-07T18:19:51.622Z,15.47
2023-04-07T18:22:22.880Z,19.60
2023-04-07T18:24:53.520Z,16.20
2023-04-07T18:27:26.098Z,19.30
2023-04-07T18:29:56.816Z,19.90
2023-04-07T18:32:26.339Z,19.23
2023-04-07T18:34:59.110Z,15.00
2023-04-07T18:37:31.376Z,16.00
2023-04-07T18:40:02.315Z,14.10
2023-04-07T18:42:32.247Z,15.83
2023-04-07T18:45:03.183Z,13.97
2023-04-07T18:47:33.418Z,13.93
2023-04-07T18:50:07.418Z,12.90
2023-04-07T18:52:38.051Z,12.40
2023-04-07T18:55:11.640Z,12.47
2023-04-07T18:57:43.487Z,12.50
2023-04-07T19:00:25.696Z,11.50
2023-04-07T19:03:35.718Z,13.00
2023-04-07T19:06:20.238Z,14.10
2023-04-07T19:09:00.901Z,15.93
2023-04-07T19:11:40.096Z,16.03
2023-04-07T19:14:14.853Z,13.50
2023-04-07T19:16:52.162Z,19.87
2023-04-07T19:19:31.419Z,18.90
2023-04-07T19:22:05.704Z,18.43
2023-04-07T19:28:09.296Z,15.90
2023-04-07T19:30:40.030Z,16.67
2023-04-07T19:33:09.801Z,15.37
2023-04-07T19:35:39.983Z,15.67
2023-04-07T19:38:11.104Z,36.57
2023-04-07T19:40:40.712Z,19.73
2023-04-07T19:43:10.225Z,20.00
2023-04-07T19:45:41.484Z,30.00
2023-04-07T19:48:13.630Z,22.77
2023-04-07T19:50:46.906Z,19.77
2023-04-07T19:53:24.404Z,47.83
2023-04-07T19:55:55.867Z,23.77
2023-04-07T19:58:25.968Z,17.37
2023-04-07T20:00:55.818Z,23.40
2023-04-07T20:03:30.378Z,27.00
2023-04-07T20:06:10.286Z,17.90
2023-04-07T20:08:41.824Z,29.50
2023-04-07T20:11:13.889Z,20.20
2023-04-07T20:13:43.911Z,32.10
2023-04-07T20:16:14.747Z,32.33
2023-04-07T20:18:44.752Z,33.30
2023-04-07T20:21:15.789Z,42.67
2023-04-07T20:23:47.872Z,30.57
2023-04-07T20:26:18.593Z,31.30
2023-04-07T20:28:48.106Z,25.13
2023-04-07T20:31:18.943Z,18.60
2023-04-07T20:33:48.652Z,21.77
2023-04-07T20:36:18.789Z,20.37
2023-04-07T20:38:50.478Z,20.43
2023-04-07T20:41:20.232Z,20.50
2023-04-07T20:43:49.833Z,19.10
2023-04-07T20:46:19.801Z,20.30
2023-04-07T20:48:49.640Z,22.47
2023-04-07T20:51:19.471Z,20.63
2023-04-07T20:53:51.332Z,18.50
2023-04-07T20:56:22.525Z,23.60
2023-04-07T20:58:52.763Z,19.80
2023-04-07T21:01:23.483Z,17.90
2023-04-07T21:03:54.868Z,23.30
2023-04-07T21:06:27.154Z,21.70
2023-04-07T21:09:00.545Z,22.43
2023-04-07T21:11:32.002Z,28.00
2023-04-07T21:14:03.962Z,24.27
2023-04-07T21:16:34.278Z,22.27
2023-04-07T21:19:03.882Z,17.97
2023-04-07T21:21:33.504Z,19.47
2023-04-07T21:24:04.658Z,19.60
2023-04-07T21:26:34.202Z,19.40
2023-04-07T21:29:03.865Z,18.63
2023-04-07T21:31:33.244Z,18.90
2023-04-07T21:34:02.783Z,18.70
2023-04-07T21:36:32.583Z,16.73
2023-04-07T21:39:04.022Z,16.70
2023-04-07T21:41:33.547Z,16.17
2023-04-07T21:44:03.603Z,16.60
2023-04-07T21:46:33.795Z,16.67
2023-04-07T21:49:03.365Z,18.00
2023-04-07T21:51:33.698Z,16.60
2023-04-07T21:54:04.752Z,14.93
2023-04-07T21:56:34.668Z,14.17
2023-04-07T21:59:04.675Z,16.30
2023-04-07T22:01:34.232Z,16.07
2023-04-07T22:04:03.933Z,15.87
2023-04-07T22:06:33.289Z,16.67
2023-04-07T22:09:05.440Z,16.00
2023-04-07T22:11:35.177Z,23.20
2023-04-07T22:14:04.777Z,19.53
2023-04-07T22:16:34.465Z,17.13
2023-04-07T22:19:03.992Z,17.33
2023-04-07T22:21:33.711Z,17.07
2023-04-07T22:24:05.076Z,19.50
2023-04-07T22:26:34.660Z,15.57
2023-04-07T22:29:04.248Z,14.90
2023-04-07T22:31:33.841Z,16.80
2023-04-07T22:34:03.307Z,15.80
2023-04-07T22:36:33.999Z,16.33
2023-04-07T22:39:05.462Z,18.60
2023-04-07T22:41:35.149Z,14.60
2023-04-07T22:44:04.670Z,15.23
2023-04-07T22:46:34.310Z,14.73
2023-04-07T22:49:03.886Z,12.90
2023-04-07T22:51:33.585Z,13.33
2023-04-07T22:54:04.724Z,13.33
2023-04-07T22:56:34.557Z,14.63
2023-04-07T22:59:06.068Z,14.30
2023-04-07T23:01:35.834Z,14.27
2023-04-07T23:04:05.290Z,13.43
2023-04-07T23:06:34.816Z,13.80
2023-04-07T23:09:06.061Z,13.80
2023-04-07T23:11:35.554Z,13.90
2023-04-07T23:14:06.696Z,16.10
2023-04-07T23:16:36.417Z,14.47
2023-04-07T23:19:06.639Z,15.47
2023-04-07T23:21:36.126Z,14.23
2023-04-07T23:24:07.289Z,15.20
2023-04-07T23:26:37.104Z,14.27
2023-04-07T23:29:06.693Z,14.50
2023-04-07T23:31:36.454Z,15.60
2023-04-07T23:34:06.726Z,15.80
2023-04-07T23:36:36.453Z,14.77
2023-04-07T23:39:07.792Z,16.97
2023-04-07T23:41:37.593Z,15.93
2023-04-07T23:44:07.408Z,15.20
2023-04-07T23:46:37.021Z,15.47
2023-04-07T23:49:06.516Z,13.50
2023-04-07T23:51:36.026Z,16.37
2023-04-07T23:54:07.061Z,16.33
2023-04-07T23:56:37.084Z,17.50
2023-04-07T23:59:06.480Z,15.70
